Bronx, NY

5:27 AM EST on December 08, 2016 (GMT -0500)
Bronx Community College | | Change Station

Elev 184 ft 40.86 °N, 73.91 °W | Updated 24 seconds ago

Overcast
Overcast
41.5 °F
Feels Like 40 °F
N
3.5
Wind Variable Wind from NNW
Gusts 0.0 mph

Today
High -- | Low -- °F
--% Chance of Precip.
Yesterday
High -- | Low -- °F
Precip. -- in
Pressure 29.97 in
Visibility 10.0 miles
Clouds Mostly Cloudy 13000 ft
Overcast 25000 ft
Windchill 40 °F
Dew Point 35 °F
Humidity 76%
Rainfall 0.00 in
Snow Depth Not available.
7:07 AM 4:27 PM
First Quarter, 62% visible
METAR KLGA 080951Z 29005KT 10SM ? BKN130 OVC250 07/M02 A2997 RMK AO2 SLP149 T00671017
Pressure 29.97 in
Visibility 10.0 miles
Clouds Mostly Cloudy 13000 ft
Overcast 25000 ft
Windchill 40 °F
Dew Point 35 °F
Humidity 76%
Rainfall 0.00 in
Snow Depth Not available.
7:07 AM 4:27 PM
First Quarter, 62% visible
METAR KLGA 080951Z 29005KT 10SM ? BKN130 OVC250 07/M02 A2997 RMK AO2 SLP149 T00671017

10-Day Weather Forecast

Almanac

Astronomy

Dec. 08, 2016 Rise Set
Actual Time
Civil Twilight
Nautical Twilight
Astronomical Twilight
Moon
Length of Visible Light
Length of Day
Tomorrow will be .
, % of the Moon is Illuminated

Today's Extremes

State Highs State Lows

Community

WunderPhotos

Upload Photos

1,956,261 photos uploaded!

WunderBlog® & News

Nearby

Air Quality

  Air Quality AQ Index Pollutant
Not available.

Snow Depth

Station Depth Elevation

Earthquake Activity

City Distance Mag. Time & Date
Minimum magnitude displayed is 2.5.

Coastal Water Temperatures

Place Temperature

Stations

Nearby Weather Stations

Station Location Temp. Windchill Dew Point Humidity Wind Precip. Elev Updated Type
                   

Watches & Warnings

There are currently no watches in effect.